createdAt,value
2022-08-05T00:01:29.075Z,100399.44
2022-08-05T00:03:57.045Z,100403.47
2022-08-05T00:06:29.371Z,100412.75
2022-08-05T00:09:00.599Z,100408.84
2022-08-05T00:11:34.448Z,100408.59
2022-08-05T00:14:13.065Z,100397.53
2022-08-05T00:16:52.712Z,100397.28
2022-08-05T00:19:22.563Z,100397.50
2022-08-05T00:21:50.448Z,100399.09
2022-08-05T00:24:19.124Z,100397.13
2022-08-05T00:26:52.982Z,100397.91
2022-08-05T00:29:25.541Z,100385.78
2022-08-05T00:32:13.413Z,100386.47
2022-08-05T00:34:54.484Z,100388.22
2022-08-05T00:37:51.302Z,100386.97
2022-08-05T00:40:17.785Z,100392.16
2022-08-05T00:42:53.658Z,100388.06
2022-08-05T00:45:37.803Z,100386.56
2022-08-05T00:48:10.073Z,100389.84
2022-08-05T00:50:37.888Z,100394.09
2022-08-05T00:53:09.841Z,100392.00
2022-08-05T00:55:51.468Z,100403.97
2022-08-05T00:58:19.111Z,100409.47
2022-08-05T01:00:47.359Z,100428.66
2022-08-05T01:03:22.391Z,100458.81
2022-08-05T01:05:51.203Z,100492.09
2022-08-05T01:08:41.246Z,100476.97
2022-08-05T01:11:36.858Z,100464.38
2022-08-05T01:14:09.688Z,100479.63
2022-08-05T01:16:45.309Z,100487.94
2022-08-05T01:19:46.092Z,100470.56
2022-08-05T01:22:24.434Z,100474.53
2022-08-05T01:25:24.706Z,100486.94
2022-08-05T01:28:37.423Z,100474.66
2022-08-05T01:31:19.208Z,100468.22
2022-08-05T01:33:51.976Z,100465.00
2022-08-05T01:36:21.162Z,100451.22
2022-08-05T01:38:56.022Z,100443.28
2022-08-05T01:41:25.529Z,100442.53
2022-08-05T01:43:53.836Z,100449.34
2022-08-05T01:46:42.077Z,100443.66
2022-08-05T01:49:23.300Z,100440.53
2022-08-05T01:51:54.165Z,100452.91
2022-08-05T01:54:24.638Z,100440.31
2022-08-05T01:58:11.967Z,100438.38
2022-08-05T01:59:40.849Z,100450.19
2022-08-05T02:02:14.212Z,100441.81
2022-08-05T02:04:43.120Z,100444.94
2022-08-05T02:07:22.161Z,100447.06
2022-08-05T02:09:50.864Z,100454.75
2022-08-05T02:12:50.877Z,100447.22
2022-08-05T02:15:23.405Z,100443.66
2022-08-05T02:18:27.584Z,100438.16
2022-08-05T02:21:06.694Z,100429.47
2022-08-05T02:23:44.692Z,100421.50
2022-08-05T02:26:13.523Z,100417.97
2022-08-05T02:28:44.590Z,100422.66
2022-08-05T02:31:16.634Z,100422.16
2022-08-05T02:33:57.696Z,100411.47
2022-08-05T02:36:27.657Z,100418.16
2022-08-05T02:38:58.468Z,100423.94
2022-08-05T02:41:28.785Z,100430.56
2022-08-05T02:44:11.200Z,100426.00
2022-08-05T02:46:53.240Z,100427.47
2022-08-05T02:49:27.433Z,100430.03
2022-08-05T02:52:11.643Z,100428.09
2022-08-05T02:54:42.277Z,100431.63
2022-08-05T02:58:09.288Z,100428.38
2022-08-05T03:00:01.677Z,100422.69
2022-08-05T03:02:38.360Z,100424.03
2022-08-05T03:05:08.725Z,100433.94
2022-08-05T03:08:00.505Z,100427.13
2022-08-05T03:10:25.662Z,100422.09
2022-08-05T03:12:54.033Z,100411.69
2022-08-05T03:15:23.586Z,100417.28
2022-08-05T03:17:54.200Z,100414.25
2022-08-05T03:20:22.373Z,100403.41
2022-08-05T03:22:50.868Z,100404.66
2022-08-05T03:25:32.463Z,100398.53
2022-08-05T03:28:08.462Z,100394.25
2022-08-05T03:30:35.854Z,100405.06
2022-08-05T03:33:05.702Z,100404.75
2022-08-05T03:35:33.851Z,100412.81
2022-08-05T03:38:01.122Z,100420.56
2022-08-05T03:40:32.071Z,100423.50
2022-08-05T03:42:59.616Z,100422.38
2022-08-05T03:45:58.315Z,100410.56
2022-08-05T03:48:29.760Z,100416.69
2022-08-05T03:52:37.149Z,100394.97
2022-08-05T03:55:00.468Z,100397.13
2022-08-05T03:57:16.433Z,100392.19
2022-08-05T03:59:54.850Z,100391.34
2022-08-05T04:02:37.704Z,100401.13
2022-08-05T04:05:09.559Z,100400.00
2022-08-05T04:07:57.192Z,100392.06
2022-08-05T04:10:27.832Z,100399.06
2022-08-05T04:12:55.575Z,100403.34
2022-08-05T04:15:25.916Z,100409.47
2022-08-05T04:17:56.338Z,100415.53
2022-08-05T04:20:24.359Z,100410.56
2022-08-05T04:22:51.371Z,100425.16
2022-08-05T04:25:18.283Z,100427.38
2022-08-05T04:27:57.430Z,100432.78
2022-08-05T04:30:27.180Z,100426.13
2022-08-05T04:32:55.253Z,100441.59
2022-08-05T04:35:23.245Z,100434.28
2022-08-05T04:40:35.327Z,100429.22
2022-08-05T04:43:02.217Z,100435.97
2022-08-05T04:45:47.927Z,100436.22
2022-08-05T04:48:27.988Z,100431.56
2022-08-05T04:51:03.593Z,100429.13
2022-08-05T04:53:38.842Z,100419.84
2022-08-05T05:00:25.495Z,100412.88
2022-08-05T05:02:52.370Z,100412.81
2022-08-05T05:05:28.066Z,100414.81
2022-08-05T05:08:01.856Z,100420.38
2022-08-05T05:10:30.553Z,100417.31
2022-08-05T05:13:00.237Z,100413.19
2022-08-05T05:15:56.841Z,100407.75
2022-08-05T05:18:31.582Z,100414.88
2022-08-05T05:21:01.345Z,100418.13
2022-08-05T05:23:39.138Z,100422.78
2022-08-05T05:26:14.666Z,100414.19
2022-08-05T05:28:42.811Z,100417.03
2022-08-05T05:31:11.644Z,100415.03
2022-08-05T05:33:58.627Z,100420.06
2022-08-05T05:36:24.932Z,100430.25
2022-08-05T05:38:57.090Z,100444.44
2022-08-05T05:41:24.056Z,100462.53
2022-08-05T05:43:58.461Z,100489.28
2022-08-05T05:46:27.270Z,100499.31
2022-08-05T05:48:53.862Z,100509.28
2022-08-05T05:51:25.702Z,100519.50
2022-08-05T05:53:57.600Z,100520.50
2022-08-05T05:56:32.239Z,100529.59
2022-08-05T05:59:06.538Z,100523.78
2022-08-05T06:01:38.075Z,100528.81
2022-08-05T06:04:11.299Z,100528.09
2022-08-05T06:06:39.374Z,100533.91
2022-08-05T06:09:08.670Z,100541.44
2022-08-05T06:11:35.598Z,100549.59
2022-08-05T06:14:06.069Z,100564.97
2022-08-05T06:16:37.246Z,100580.19
2022-08-05T06:19:05.842Z,100593.63
2022-08-05T06:21:36.421Z,100605.66
2022-08-05T06:24:11.198Z,100601.59
2022-08-05T06:26:51.089Z,100597.69
2022-08-05T06:29:26.454Z,100597.44
2022-08-05T06:32:05.635Z,100598.50
2022-08-05T06:34:48.394Z,100597.59
2022-08-05T06:37:55.666Z,100592.53
2022-08-05T06:40:07.501Z,100610.31
2022-08-05T06:42:34.146Z,100621.22
2022-08-05T06:45:00.753Z,100624.81
2022-08-05T06:48:44.140Z,100640.38
2022-08-05T06:50:19.110Z,100643.31
2022-08-05T06:52:58.602Z,100651.09
2022-08-05T06:55:36.499Z,100632.75
2022-08-05T06:58:20.116Z,100638.50
2022-08-05T07:00:50.919Z,100637.88
2022-08-05T07:03:18.095Z,100629.81
2022-08-05T07:05:46.359Z,100613.41
2022-08-05T07:08:13.557Z,100611.25
2022-08-05T07:10:53.427Z,100609.38
2022-08-05T07:13:59.189Z,100604.56
2022-08-05T07:17:58.903Z,100569.56
2022-08-05T07:22:28.747Z,100577.66
2022-08-05T07:25:23.257Z,100580.03
2022-08-05T07:27:58.772Z,100582.09
2022-08-05T07:30:34.599Z,100592.81
2022-08-05T07:33:09.417Z,100587.25
2022-08-05T07:36:01.939Z,100591.34
2022-08-05T07:38:32.355Z,100595.47
2022-08-05T07:42:07.172Z,100604.84
2022-08-05T07:43:51.002Z,100607.13
2022-08-05T07:46:24.762Z,100612.41
2022-08-05T07:49:01.835Z,100639.81
2022-08-05T07:51:48.997Z,100658.56
2022-08-05T07:54:31.065Z,100661.53
2022-08-05T07:57:22.640Z,100665.75
2022-08-05T07:59:48.976Z,100646.19
2022-08-05T08:02:17.579Z,100635.63
2022-08-05T08:04:49.206Z,100635.25
2022-08-05T08:07:18.412Z,100626.91
2022-08-05T08:09:52.549Z,100645.81
2022-08-05T08:12:33.295Z,100649.41
2022-08-05T08:15:09.466Z,100660.19
2022-08-05T08:17:40.918Z,100656.50
2022-08-05T08:20:42.568Z,100640.34
2022-08-05T08:23:03.979Z,100626.28
2022-08-05T08:26:00.952Z,100630.88
2022-08-05T08:28:18.254Z,100635.53
2022-08-05T08:30:47.741Z,100622.31
2022-08-05T08:33:16.646Z,100610.25
2022-08-05T08:35:53.950Z,100605.94
2022-08-05T08:38:35.199Z,100599.91
2022-08-05T08:41:08.510Z,100600.16
2022-08-05T08:45:16.917Z,100597.97
2022-08-05T08:46:24.015Z,100583.25
2022-08-05T08:49:06.109Z,100583.34
2022-08-05T08:52:04.052Z,100593.59
2022-08-05T08:54:27.837Z,100595.63
2022-08-05T08:56:56.635Z,100594.00
2022-08-05T08:59:27.518Z,100602.28
2022-08-05T09:01:57.300Z,100600.69
2022-08-05T09:04:30.522Z,100600.03
2022-08-05T09:06:57.808Z,100598.00
2022-08-05T09:09:26.069Z,100599.84
2022-08-05T09:12:20.213Z,100615.66
2022-08-05T09:14:57.339Z,100616.09
2022-08-05T09:17:40.465Z,100623.72
2022-08-05T09:20:08.941Z,100633.75
2022-08-05T09:23:07.816Z,100643.53
2022-08-05T09:26:01.718Z,100644.59
2022-08-05T09:28:24.516Z,100647.97
2022-08-05T09:31:43.562Z,100644.28
2022-08-05T09:33:59.189Z,100647.09
2022-08-05T09:36:39.073Z,100652.16
2022-08-05T09:39:27.735Z,100648.28
2022-08-05T09:42:08.790Z,100647.41
2022-08-05T09:44:42.808Z,100640.75
2022-08-05T09:47:15.422Z,100640.41
2022-08-05T09:50:01.350Z,100646.66
2022-08-05T09:52:31.634Z,100635.75
2022-08-05T09:55:57.696Z,100639.09
2022-08-05T09:57:54.726Z,100625.22
2022-08-05T10:00:26.518Z,100629.97
2022-08-05T10:02:58.570Z,100625.75
2022-08-05T10:05:27.041Z,100592.06
2022-08-05T10:08:35.778Z,100594.66
2022-08-05T10:10:53.972Z,100600.66
2022-08-05T10:13:45.676Z,100612.28
2022-08-05T10:16:33.843Z,100598.97
2022-08-05T10:19:08.513Z,100597.34
2022-08-05T10:21:40.113Z,100624.38
2022-08-05T10:24:13.363Z,100590.00
2022-08-05T10:26:49.045Z,100604.66
2022-08-05T10:30:05.758Z,100601.13
2022-08-05T10:33:02.200Z,100609.28
2022-08-05T10:35:00.801Z,100607.75
2022-08-05T10:37:39.996Z,100604.00
2022-08-05T10:40:49.240Z,100613.56
2022-08-05T10:43:42.098Z,100614.97
2022-08-05T10:46:11.850Z,100617.56
2022-08-05T10:48:56.899Z,100619.06
2022-08-05T10:51:28.732Z,100613.19
2022-08-05T10:54:01.845Z,100614.41
2022-08-05T10:56:44.536Z,100603.34
2022-08-05T11:00:01.326Z,100610.44
2022-08-05T11:02:14.404Z,100614.63
2022-08-05T11:04:59.456Z,100618.63
2022-08-05T11:07:33.016Z,100622.53
2022-08-05T11:10:27.130Z,100623.19
2022-08-05T11:12:55.923Z,100615.78
2022-08-05T11:16:00.521Z,100624.69
2022-08-05T11:18:34.381Z,100624.09
2022-08-05T11:21:11.175Z,100620.72
2022-08-05T11:24:05.536Z,100628.31
2022-08-05T11:26:40.477Z,100637.72
2022-08-05T11:29:34.438Z,100641.28
2022-08-05T11:32:27.699Z,100637.81
2022-08-05T11:34:55.296Z,100631.41
2022-08-05T11:38:30.136Z,100639.13
2022-08-05T11:41:34.314Z,100626.94
2022-08-05T11:44:08.097Z,100629.38
2022-08-05T11:46:58.365Z,100626.25
2022-08-05T11:49:33.840Z,100636.06
2022-08-05T11:52:01.175Z,100621.84
2022-08-05T11:54:33.619Z,100631.16
2022-08-05T11:57:08.678Z,100620.56
2022-08-05T11:59:50.249Z,100629.47
2022-08-05T12:02:30.637Z,100633.34
2022-08-05T12:05:01.218Z,100627.78
2022-08-05T12:08:03.399Z,100628.13
2022-08-05T12:10:44.983Z,100633.16
2022-08-05T12:13:16.814Z,100637.59
2022-08-05T12:15:45.099Z,100631.31
2022-08-05T12:18:17.762Z,100638.88
2022-08-05T12:20:47.326Z,100643.47
2022-08-05T12:23:14.429Z,100643.28
2022-08-05T12:25:56.977Z,100653.09
2022-08-05T12:28:37.803Z,100647.38
2022-08-05T12:31:04.931Z,100645.03
2022-08-05T12:33:36.526Z,100655.66
2022-08-05T12:36:08.155Z,100653.38
2022-08-05T12:38:41.729Z,100638.81
2022-08-05T12:41:13.499Z,100641.72
2022-08-05T12:43:58.721Z,100636.47
2022-08-05T12:46:29.741Z,100629.25
2022-08-05T12:49:05.893Z,100635.75
2022-08-05T12:52:12.103Z,100638.38
2022-08-05T12:54:51.079Z,100637.28
2022-08-05T12:57:19.317Z,100639.63
2022-08-05T13:02:00.180Z,100649.97
2022-08-05T13:02:40.112Z,100644.28
2022-08-05T13:05:08.494Z,100648.44
2022-08-05T13:07:59.686Z,100644.81
2022-08-05T13:10:26.893Z,100648.84
2022-08-05T13:12:58.226Z,100650.03
2022-08-05T13:15:41.414Z,100647.41
2022-08-05T13:18:18.919Z,100646.91
2022-08-05T13:20:49.168Z,100652.59
2022-08-05T13:23:18.039Z,100655.47
2022-08-05T13:25:52.058Z,100648.97
2022-08-05T13:28:25.367Z,100653.13
2022-08-05T13:30:53.338Z,100651.88
2022-08-05T13:34:24.148Z,100651.75
2022-08-05T13:36:09.167Z,100655.88
2022-08-05T13:38:38.548Z,100655.28
2022-08-05T13:44:05.662Z,100651.38
2022-08-05T13:46:44.265Z,100651.63
2022-08-05T13:49:19.724Z,100658.16
2022-08-05T13:51:48.208Z,100653.81
2022-08-05T13:54:20.815Z,100659.69
2022-08-05T13:56:52.018Z,100660.16
2022-08-05T13:59:23.978Z,100655.28
2022-08-05T14:01:57.651Z,100652.63
2022-08-05T14:04:50.021Z,100650.69
2022-08-05T14:07:25.361Z,100651.88
2022-08-05T14:10:09.285Z,100646.47
2022-08-05T14:12:36.600Z,100654.47
2022-08-05T14:15:05.985Z,100657.06
2022-08-05T14:17:51.105Z,100659.06
2022-08-05T14:20:21.757Z,100657.84
2022-08-05T14:22:54.417Z,100661.22
2022-08-05T14:25:22.494Z,100663.47
2022-08-05T14:27:54.412Z,100654.81
2022-08-05T14:30:22.085Z,100652.72
2022-08-05T14:32:52.441Z,100650.34
2022-08-05T14:35:20.848Z,100654.91
2022-08-05T14:37:53.579Z,100664.75
2022-08-05T14:40:24.251Z,100658.88
2022-08-05T14:42:51.919Z,100657.34
2022-08-05T14:45:18.736Z,100663.75
2022-08-05T14:48:03.161Z,100681.75
2022-08-05T14:50:31.801Z,100684.69
2022-08-05T14:52:59.948Z,100685.97
2022-08-05T14:55:38.560Z,100694.38
2022-08-05T14:58:11.157Z,100689.31
2022-08-05T15:00:58.402Z,100686.00
2022-08-05T15:03:33.330Z,100691.72
2022-08-05T15:06:08.210Z,100687.16
2022-08-05T15:09:01.310Z,100695.38
2022-08-05T15:11:52.642Z,100694.34
2022-08-05T15:14:33.413Z,100694.69
2022-08-05T15:17:01.828Z,100704.06
2022-08-05T15:19:30.716Z,100687.88
2022-08-05T15:22:01.036Z,100716.34
2022-08-05T15:24:28.616Z,100718.00
2022-08-05T15:26:55.936Z,100715.66
2022-08-05T15:29:23.696Z,100715.97
2022-08-05T15:31:56.670Z,100718.53
2022-08-05T15:34:33.127Z,100715.25
2022-08-05T15:37:06.842Z,100722.78
2022-08-05T15:40:58.698Z,100731.56
2022-08-05T15:42:54.357Z,100734.53
2022-08-05T15:45:15.026Z,100726.31
2022-08-05T15:47:45.679Z,100741.00
2022-08-05T15:50:15.248Z,100727.81
2022-08-05T15:52:54.261Z,100727.56
2022-08-05T15:55:24.964Z,100745.94
2022-08-05T15:58:09.870Z,100746.25
2022-08-05T16:00:50.661Z,100763.38
2022-08-05T16:03:30.361Z,100758.03
2022-08-05T16:05:59.688Z,100781.94
2022-08-05T16:08:30.739Z,100777.50
2022-08-05T16:10:58.260Z,100784.50
2022-08-05T16:13:31.926Z,100791.78
2022-08-05T16:16:04.524Z,100786.31
2022-08-05T16:18:32.957Z,100799.88
2022-08-05T16:21:04.834Z,100803.47
2022-08-05T16:23:53.133Z,100801.06
2022-08-05T16:26:19.137Z,100817.28
2022-08-05T16:28:53.207Z,100816.81
2022-08-05T16:31:21.748Z,100828.78
2022-08-05T16:33:49.181Z,100841.81
2022-08-05T16:36:20.508Z,100851.31
2022-08-05T16:38:54.682Z,100854.81
2022-08-05T16:42:27.673Z,100860.41
2022-08-05T16:44:09.669Z,100869.28
2022-08-05T16:46:38.755Z,100871.69
2022-08-05T16:49:09.185Z,100882.84
2022-08-05T16:51:42.345Z,100882.72
2022-08-05T16:54:17.557Z,100883.56
2022-08-05T16:56:47.288Z,100886.19
2022-08-05T16:59:19.006Z,100888.47
2022-08-05T17:01:53.692Z,100899.22
2022-08-05T17:04:27.944Z,100896.78
2022-08-05T17:07:00.084Z,100910.38
2022-08-05T17:09:28.429Z,100906.50
2022-08-05T17:11:59.502Z,100914.88
2022-08-05T17:14:37.469Z,100920.34
2022-08-05T17:17:14.615Z,100919.78
2022-08-05T17:19:45.238Z,100935.63
2022-08-05T17:22:24.862Z,100931.53
2022-08-05T17:24:58.031Z,100938.03
2022-08-05T17:27:26.351Z,100949.16
2022-08-05T17:30:00.569Z,100934.81
2022-08-05T17:32:29.212Z,100923.53
2022-08-05T17:34:58.225Z,100942.47
2022-08-05T17:37:39.377Z,100950.66
2022-08-05T17:40:14.363Z,100958.78
2022-08-05T17:42:49.863Z,100954.84
2022-08-05T17:45:22.943Z,100956.28
2022-08-05T17:47:54.545Z,100960.91
2022-08-05T17:50:28.420Z,100958.22
2022-08-05T17:52:58.971Z,100960.38
2022-08-05T17:55:34.387Z,100960.59
2022-08-05T17:58:07.005Z,100960.59
2022-08-05T18:00:36.161Z,100954.56
2022-08-05T18:03:11.894Z,100960.53
2022-08-05T18:05:53.587Z,100963.06
2022-08-05T18:08:20.977Z,100961.72
2022-08-05T18:10:47.719Z,100975.59
2022-08-05T18:13:15.668Z,100975.16
2022-08-05T18:15:42.650Z,100987.41
2022-08-05T18:18:11.619Z,100984.16
2022-08-05T18:20:38.772Z,100981.47
2022-08-05T18:23:09.059Z,100991.31
2022-08-05T18:25:39.203Z,100986.41
2022-08-05T18:28:16.502Z,100990.22
2022-08-05T18:30:50.052Z,100991.13
2022-08-05T18:33:22.588Z,101004.97
2022-08-05T18:36:03.439Z,101011.34
2022-08-05T18:38:35.814Z,101023.19
2022-08-05T18:41:56.461Z,101015.63
2022-08-05T18:43:54.214Z,101017.28
2022-08-05T18:46:20.935Z,101015.50
2022-08-05T18:48:51.974Z,101011.63
2022-08-05T18:52:06.505Z,101016.03
2022-08-05T18:54:31.372Z,101015.41
2022-08-05T18:57:02.009Z,101018.69
2022-08-05T18:59:42.730Z,101025.28
2022-08-05T19:02:27.802Z,101041.19
2022-08-05T19:05:02.247Z,101047.03
2022-08-05T19:07:49.606Z,101049.78
2022-08-05T19:10:17.711Z,101055.13
2022-08-05T19:12:46.077Z,101061.31
2022-08-05T19:15:57.581Z,101063.03
2022-08-05T19:18:10.522Z,101077.47
2022-08-05T19:20:41.526Z,101079.44
2022-08-05T19:24:04.372Z,101081.09
2022-08-05T19:26:01.930Z,101098.44
2022-08-05T19:31:21.307Z,101114.34
2022-08-05T19:33:56.312Z,101114.53
2022-08-05T19:36:29.277Z,101114.00
2022-08-05T19:38:58.776Z,101117.03
2022-08-05T19:41:58.220Z,101106.41
2022-08-05T19:44:14.704Z,101105.66
2022-08-05T19:46:43.792Z,101110.34
2022-08-05T19:49:12.535Z,101120.50
2022-08-05T19:52:04.525Z,101126.00
2022-08-05T19:54:31.882Z,101134.81
2022-08-05T19:57:06.580Z,101124.06
2022-08-05T19:59:55.268Z,101125.19
2022-08-05T20:02:28.014Z,101121.16
2022-08-05T20:04:58.517Z,101121.91
2022-08-05T20:07:47.311Z,101129.84
2022-08-05T20:10:14.414Z,101130.38
2022-08-05T20:12:46.098Z,101128.56
2022-08-05T20:15:48.366Z,101146.28
2022-08-05T20:18:04.388Z,101142.25
2022-08-05T20:20:37.893Z,101141.31
2022-08-05T20:23:05.448Z,101128.41
2022-08-05T20:25:33.763Z,101125.66
2022-08-05T20:28:07.878Z,101121.88
2022-08-05T20:30:40.436Z,101130.91
2022-08-05T20:33:08.733Z,101136.81
2022-08-05T20:35:40.709Z,101134.94
2022-08-05T20:38:22.644Z,101134.31
2022-08-05T20:40:55.464Z,101138.84
2022-08-05T20:43:33.143Z,101151.38
2022-08-05T20:46:12.523Z,101155.78
2022-08-05T20:48:45.373Z,101160.72
2022-08-05T20:51:17.671Z,101177.47
2022-08-05T20:53:44.520Z,101172.25
2022-08-05T20:56:28.162Z,101177.81
2022-08-05T20:58:56.839Z,101185.88
2022-08-05T21:01:38.590Z,101174.28
2022-08-05T21:04:07.272Z,101178.75
2022-08-05T21:06:37.647Z,101192.97
2022-08-05T21:09:12.163Z,101192.28
2022-08-05T21:12:06.910Z,101186.94
2022-08-05T21:14:27.790Z,101196.75
2022-08-05T21:16:55.192Z,101211.13
2022-08-05T21:19:23.525Z,101210.44
2022-08-05T21:21:50.801Z,101209.66
2022-08-05T21:24:19.531Z,101214.13
2022-08-05T21:26:53.345Z,101221.31
2022-08-05T21:29:26.664Z,101223.97
2022-08-05T21:31:58.375Z,101229.28
2022-08-05T21:34:24.987Z,101232.03
2022-08-05T21:36:51.713Z,101228.44
2022-08-05T21:39:26.887Z,101226.03
2022-08-05T21:42:01.087Z,101230.50
2022-08-05T21:44:28.475Z,101231.81
2022-08-05T21:46:55.751Z,101230.41
2022-08-05T21:49:56.623Z,101225.44
2022-08-05T21:52:16.457Z,101225.66
2022-08-05T21:54:55.190Z,101237.38
2022-08-05T21:57:31.303Z,101238.31
2022-08-05T22:00:10.764Z,101236.84
2022-08-05T22:02:38.686Z,101245.13
2022-08-05T22:05:06.015Z,101242.66
2022-08-05T22:07:40.261Z,101233.81
2022-08-05T22:10:25.557Z,101234.97
2022-08-05T22:12:59.097Z,101239.66
2022-08-05T22:16:01.781Z,101239.97
2022-08-05T22:18:30.350Z,101248.94
2022-08-05T22:20:58.799Z,101243.91
2022-08-05T22:24:01.086Z,101249.34
2022-08-05T22:26:49.985Z,101257.63
2022-08-05T22:29:26.725Z,101257.78
2022-08-05T22:31:59.258Z,101259.00
2022-08-05T22:34:28.775Z,101261.00
2022-08-05T22:36:58.245Z,101258.53
2022-08-05T22:39:29.789Z,101248.03
2022-08-05T22:42:09.810Z,101254.28
2022-08-05T22:44:38.618Z,101264.28
2022-08-05T22:47:06.529Z,101266.13
2022-08-05T22:50:20.984Z,101266.84
2022-08-05T22:52:30.111Z,101276.72
2022-08-05T22:54:59.754Z,101279.00
2022-08-05T22:57:26.809Z,101275.34
2022-08-05T23:00:00.926Z,101286.13
2022-08-05T23:02:30.265Z,101282.75
2022-08-05T23:05:01.766Z,101286.13
2022-08-05T23:07:32.166Z,101283.50
2022-08-05T23:10:02.112Z,101290.56
2022-08-05T23:12:32.644Z,101297.88
2022-08-05T23:15:08.999Z,101301.41
2022-08-05T23:17:37.948Z,101301.41
2022-08-05T23:20:23.438Z,101305.66
2022-08-05T23:22:52.793Z,101318.31
2022-08-05T23:25:53.362Z,101313.75
2022-08-05T23:28:10.063Z,101321.84
2022-08-05T23:30:40.113Z,101321.91
2022-08-05T23:33:16.181Z,101325.84
2022-08-05T23:35:50.230Z,101314.13
2022-08-05T23:38:17.035Z,101309.88
2022-08-05T23:40:49.423Z,101306.09
2022-08-05T23:43:25.648Z,101315.81
2022-08-05T23:46:20.997Z,101320.41
2022-08-05T23:48:59.894Z,101313.22
2022-08-05T23:51:52.315Z,101320.31
2022-08-05T23:54:25.657Z,101315.25
2022-08-05T23:56:54.446Z,101317.81
2022-08-05T23:59:22.167Z,101328.50
